createdAt,value
2017-09-03T00:00:11.691Z,1014.38
2017-09-03T00:01:11.663Z,1014.34
2017-09-03T00:02:11.643Z,1014.40
2017-09-03T00:03:11.621Z,1014.39
2017-09-03T00:04:11.618Z,1014.38
2017-09-03T00:05:11.577Z,1014.38
2017-09-03T00:06:11.556Z,1014.34
2017-09-03T00:07:11.533Z,1014.35
2017-09-03T00:08:11.513Z,1014.36
2017-09-03T00:09:11.488Z,1014.36
2017-09-03T00:10:11.466Z,1014.32
2017-09-03T00:11:11.448Z,1014.29
2017-09-03T00:12:11.423Z,1014.31
2017-09-03T00:13:11.405Z,1014.30
2017-09-03T00:14:11.382Z,1014.27
2017-09-03T00:15:11.359Z,1014.27
2017-09-03T00:16:11.341Z,1014.28
2017-09-03T00:17:11.312Z,1014.30
2017-09-03T00:18:11.295Z,1014.30
2017-09-03T00:19:11.268Z,1014.34
2017-09-03T00:20:11.251Z,1014.31
2017-09-03T00:21:11.228Z,1014.34
2017-09-03T00:22:11.203Z,1014.33
2017-09-03T00:23:11.181Z,1014.34
2017-09-03T00:24:11.159Z,1014.31
2017-09-03T00:25:11.139Z,1014.31
2017-09-03T00:26:11.119Z,1014.27
2017-09-03T00:27:11.093Z,1014.26
2017-09-03T00:28:11.078Z,1014.24
2017-09-03T00:29:11.054Z,1014.23
2017-09-03T00:30:11.031Z,1014.23
2017-09-03T00:31:11.005Z,1014.23
2017-09-03T00:32:10.987Z,1014.26
2017-09-03T00:33:10.967Z,1014.26
2017-09-03T00:34:10.946Z,1014.26
2017-09-03T00:35:10.922Z,1014.26
2017-09-03T00:36:10.900Z,1014.27
2017-09-03T00:37:10.875Z,1014.25
2017-09-03T00:38:10.857Z,1014.26
2017-09-03T00:39:10.835Z,1014.28
2017-09-03T00:40:10.810Z,1014.22
2017-09-03T00:41:10.789Z,1014.23
2017-09-03T00:42:10.769Z,1014.26
2017-09-03T00:43:10.751Z,1014.26
2017-09-03T00:44:10.721Z,1014.29
2017-09-03T00:45:10.699Z,1014.31
2017-09-03T00:46:10.680Z,1014.30
2017-09-03T00:47:10.660Z,1014.34
2017-09-03T00:48:10.637Z,1014.33
2017-09-03T00:49:10.615Z,1014.31
2017-09-03T00:50:10.595Z,1014.30
2017-09-03T00:51:10.570Z,1014.25
2017-09-03T00:52:10.550Z,1014.26
2017-09-03T00:53:10.530Z,1014.25
2017-09-03T00:54:10.503Z,1014.23
2017-09-03T00:55:10.483Z,1014.27
2017-09-03T00:56:10.458Z,1014.28
2017-09-03T00:57:10.445Z,1014.25
2017-09-03T00:58:10.417Z,1014.27
2017-09-03T00:59:10.395Z,1014.23
2017-09-03T01:00:10.370Z,1014.23
2017-09-03T01:01:10.354Z,1014.22
2017-09-03T01:02:10.331Z,1014.23
2017-09-03T01:03:10.305Z,1014.18
2017-09-03T01:04:10.289Z,1014.18
2017-09-03T01:05:10.263Z,1014.17
2017-09-03T01:06:10.240Z,1014.19
2017-09-03T01:07:10.223Z,1014.21
2017-09-03T01:08:10.200Z,1014.22
2017-09-03T01:09:10.175Z,1014.19
2017-09-03T01:10:10.158Z,1014.24
2017-09-03T01:11:10.135Z,1014.22
2017-09-03T01:12:10.113Z,1014.19
2017-09-03T01:13:10.092Z,1014.23
2017-09-03T01:14:10.066Z,1014.20
2017-09-03T01:15:10.044Z,1014.19
2017-09-03T01:16:10.022Z,1014.17
2017-09-03T01:17:10.003Z,1014.12
2017-09-03T01:18:09.979Z,1014.14
2017-09-03T01:19:09.961Z,1014.13
2017-09-03T01:20:09.937Z,1014.10
2017-09-03T01:21:09.919Z,1014.10
2017-09-03T01:22:09.894Z,1014.10
2017-09-03T01:23:09.869Z,1014.09
2017-09-03T01:24:09.849Z,1014.05
2017-09-03T01:25:09.831Z,1014.08
2017-09-03T01:26:09.806Z,1014.03
2017-09-03T01:27:09.784Z,1014.04
2017-09-03T01:28:09.760Z,1014.04
2017-09-03T01:29:09.738Z,1014.03
2017-09-03T01:30:09.715Z,1014.02
2017-09-03T01:31:09.692Z,1013.98
2017-09-03T01:32:09.671Z,1013.99
2017-09-03T01:33:09.653Z,1013.99
2017-09-03T01:34:09.629Z,1013.97
2017-09-03T01:35:09.608Z,1013.97
2017-09-03T01:36:09.588Z,1013.99
2017-09-03T01:37:09.562Z,1013.97
2017-09-03T01:38:09.540Z,1013.92
2017-09-03T01:39:09.518Z,1013.90
2017-09-03T01:40:09.500Z,1013.88
2017-09-03T01:41:09.478Z,1013.89
2017-09-03T01:42:09.454Z,1013.93
2017-09-03T01:43:09.534Z,1013.87
2017-09-03T01:44:09.412Z,1013.88
2017-09-03T01:45:09.388Z,1013.90
2017-09-03T01:46:09.367Z,1013.88
2017-09-03T01:47:09.346Z,1013.91
2017-09-03T01:48:09.322Z,1013.88
2017-09-03T01:49:09.303Z,1013.87
2017-09-03T01:50:09.277Z,1013.87
2017-09-03T01:51:09.258Z,1013.89
2017-09-03T01:52:09.238Z,1013.90
2017-09-03T01:53:09.214Z,1013.90
2017-09-03T01:54:09.190Z,1013.89
2017-09-03T01:55:09.166Z,1013.89
2017-09-03T01:56:09.148Z,1013.87
2017-09-03T01:57:09.127Z,1013.88
2017-09-03T01:58:09.104Z,1013.89
2017-09-03T01:59:09.097Z,1013.89
2017-09-03T02:00:09.061Z,1013.87
2017-09-03T02:01:09.040Z,1013.88
2017-09-03T02:02:09.017Z,1013.89
2017-09-03T02:03:08.991Z,1013.89
2017-09-03T02:04:08.971Z,1013.86
2017-09-03T02:05:08.952Z,1013.89
2017-09-03T02:06:08.931Z,1013.90
2017-09-03T02:07:08.908Z,1013.90
2017-09-03T02:08:08.886Z,1013.89
2017-09-03T02:09:08.859Z,1013.92
2017-09-03T02:10:08.837Z,1013.90
2017-09-03T02:11:08.814Z,1013.94
2017-09-03T02:12:08.798Z,1013.90
2017-09-03T02:13:08.772Z,1013.87
2017-09-03T02:14:08.751Z,1013.88
2017-09-03T02:15:08.732Z,1013.87
2017-09-03T02:16:08.704Z,1013.84
2017-09-03T02:17:08.688Z,1013.82
2017-09-03T02:18:08.667Z,1013.84
2017-09-03T02:19:08.641Z,1013.81
2017-09-03T02:20:08.619Z,1013.79
2017-09-03T02:21:08.598Z,1013.77
2017-09-03T02:22:08.578Z,1013.81
2017-09-03T02:23:08.556Z,1013.80
2017-09-03T02:24:08.533Z,1013.82
2017-09-03T02:25:08.507Z,1013.80
2017-09-03T02:26:08.487Z,1013.83
2017-09-03T02:27:08.467Z,1013.85
2017-09-03T02:28:08.442Z,1013.86
2017-09-03T02:29:08.418Z,1013.82
2017-09-03T02:30:08.397Z,1013.82
2017-09-03T02:31:08.376Z,1013.83
2017-09-03T02:32:08.354Z,1013.81
2017-09-03T02:33:08.335Z,1013.80
2017-09-03T02:34:08.312Z,1013.81
2017-09-03T02:35:08.290Z,1013.81
2017-09-03T02:36:08.265Z,1013.81
2017-09-03T02:37:08.242Z,1013.82
2017-09-03T02:38:08.221Z,1013.83
2017-09-03T02:39:08.203Z,1013.81
2017-09-03T02:40:08.182Z,1013.83
2017-09-03T02:41:08.163Z,1013.83
2017-09-03T02:42:08.137Z,1013.86
2017-09-03T02:43:08.111Z,1013.84
2017-09-03T02:44:08.092Z,1013.89
2017-09-03T02:45:08.068Z,1013.83
2017-09-03T02:46:08.047Z,1013.84
2017-09-03T02:47:08.022Z,1013.85
2017-09-03T02:48:08.001Z,1013.86
2017-09-03T02:49:07.982Z,1013.85
2017-09-03T02:50:07.957Z,1013.83
2017-09-03T02:51:07.941Z,1013.85
2017-09-03T02:52:07.913Z,1013.86
2017-09-03T02:53:07.893Z,1013.86
2017-09-03T02:54:07.874Z,1013.86
2017-09-03T02:55:07.850Z,1013.86
2017-09-03T02:56:07.825Z,1013.85
2017-09-03T02:57:07.804Z,1013.84
2017-09-03T02:58:07.783Z,1013.85
2017-09-03T02:59:07.763Z,1013.81
2017-09-03T03:00:07.736Z,1013.83
2017-09-03T03:01:07.715Z,1013.81
2017-09-03T03:02:07.693Z,1013.78
2017-09-03T03:03:07.675Z,1013.83
2017-09-03T03:04:07.652Z,1013.85
2017-09-03T03:05:07.629Z,1013.81
2017-09-03T03:06:07.607Z,1013.81
2017-09-03T03:07:07.583Z,1013.85
2017-09-03T03:08:07.563Z,1013.85
2017-09-03T03:09:07.541Z,1013.86
2017-09-03T03:10:07.526Z,1013.85
2017-09-03T03:11:07.498Z,1013.85
2017-09-03T03:12:07.478Z,1013.87
2017-09-03T03:13:07.451Z,1013.86
2017-09-03T03:14:07.433Z,1013.87
2017-09-03T03:15:07.410Z,1013.88
2017-09-03T03:16:07.410Z,1013.88
2017-09-03T03:17:07.366Z,1013.90
2017-09-03T03:18:07.341Z,1013.88
2017-09-03T03:19:07.322Z,1013.87
2017-09-03T03:20:07.302Z,1013.89
2017-09-03T03:21:07.279Z,1013.87
2017-09-03T03:22:07.257Z,1013.85
2017-09-03T03:23:07.233Z,1013.84
2017-09-03T03:24:07.210Z,1013.81
2017-09-03T03:25:07.190Z,1013.80
2017-09-03T03:26:07.169Z,1013.83
2017-09-03T03:27:07.144Z,1013.77
2017-09-03T03:28:07.124Z,1013.77
2017-09-03T03:29:07.100Z,1013.80
2017-09-03T03:30:07.081Z,1013.76
2017-09-03T03:31:07.055Z,1013.75
2017-09-03T03:32:07.035Z,1013.74
2017-09-03T03:33:07.012Z,1013.69
2017-09-03T03:34:06.992Z,1013.74
2017-09-03T03:35:06.967Z,1013.71
2017-09-03T03:36:06.946Z,1013.74
2017-09-03T03:37:06.922Z,1013.73
2017-09-03T03:38:06.905Z,1013.71
2017-09-03T03:39:06.879Z,1013.72
2017-09-03T03:40:06.860Z,1013.67
2017-09-03T03:41:06.836Z,1013.65
2017-09-03T03:42:06.816Z,1013.64
2017-09-03T03:43:06.792Z,1013.61
2017-09-03T03:44:06.771Z,1013.64
2017-09-03T03:45:06.749Z,1013.64
2017-09-03T03:46:06.723Z,1013.66
2017-09-03T03:47:06.702Z,1013.58
2017-09-03T03:48:06.682Z,1013.62
2017-09-03T03:49:06.661Z,1013.61
2017-09-03T03:50:06.638Z,1013.60
2017-09-03T03:51:06.614Z,1013.58
2017-09-03T03:52:06.591Z,1013.59
2017-09-03T03:53:06.574Z,1013.62
2017-09-03T03:54:06.552Z,1013.55
2017-09-03T03:55:06.527Z,1013.59
2017-09-03T03:56:06.507Z,1013.58
2017-09-03T03:57:06.486Z,1013.60
2017-09-03T03:58:06.463Z,1013.58
2017-09-03T03:59:06.438Z,1013.60
2017-09-03T04:00:06.415Z,1013.61
2017-09-03T04:01:06.397Z,1013.55
2017-09-03T04:02:06.375Z,1013.57
2017-09-03T04:03:06.351Z,1013.54
2017-09-03T04:04:06.333Z,1013.52
2017-09-03T04:05:06.307Z,1013.54
2017-09-03T04:06:06.283Z,1013.50
2017-09-03T04:07:06.263Z,1013.52
2017-09-03T04:08:06.240Z,1013.53
2017-09-03T04:09:06.219Z,1013.50
2017-09-03T04:10:06.195Z,1013.53
2017-09-03T04:11:06.172Z,1013.53
2017-09-03T04:12:06.154Z,1013.52
2017-09-03T04:13:06.131Z,1013.50
2017-09-03T04:14:06.109Z,1013.53
2017-09-03T04:15:06.091Z,1013.54
2017-09-03T04:16:06.062Z,1013.57
2017-09-03T04:17:06.042Z,1013.52
2017-09-03T04:18:06.018Z,1013.53
2017-09-03T04:19:05.998Z,1013.52
2017-09-03T04:20:05.973Z,1013.55
2017-09-03T04:21:05.955Z,1013.54
2017-09-03T04:22:05.937Z,1013.51
2017-09-03T04:23:05.908Z,1013.57
2017-09-03T04:24:05.887Z,1013.55
2017-09-03T04:25:05.866Z,1013.55
2017-09-03T04:26:05.849Z,1013.56
2017-09-03T04:27:05.823Z,1013.55
2017-09-03T04:28:05.803Z,1013.55
2017-09-03T04:29:05.782Z,1013.56
2017-09-03T04:30:05.756Z,1013.59
2017-09-03T04:31:05.730Z,1013.56
2017-09-03T04:32:05.712Z,1013.55
2017-09-03T04:33:05.691Z,1013.58
2017-09-03T04:34:05.667Z,1013.56
2017-09-03T04:35:05.648Z,1013.53
2017-09-03T04:36:05.624Z,1013.54
2017-09-03T04:37:05.602Z,1013.52
2017-09-03T04:38:05.581Z,1013.53
2017-09-03T04:39:05.556Z,1013.55
2017-09-03T04:40:05.532Z,1013.54
2017-09-03T04:41:05.514Z,1013.53
2017-09-03T04:42:05.489Z,1013.55
2017-09-03T04:43:05.466Z,1013.53
2017-09-03T04:44:05.447Z,1013.54
2017-09-03T04:45:05.422Z,1013.56
2017-09-03T04:46:05.403Z,1013.54
2017-09-03T04:47:05.378Z,1013.53
2017-09-03T04:48:05.359Z,1013.55
2017-09-03T04:49:05.333Z,1013.54
2017-09-03T04:50:05.313Z,1013.55
2017-09-03T04:51:05.294Z,1013.55
2017-09-03T04:52:05.271Z,1013.58
2017-09-03T04:53:05.249Z,1013.53
2017-09-03T04:54:05.226Z,1013.50
2017-09-03T04:55:05.203Z,1013.50
2017-09-03T04:56:05.183Z,1013.49
2017-09-03T04:57:05.160Z,1013.48
2017-09-03T04:58:05.140Z,1013.46
2017-09-03T04:59:05.113Z,1013.50
2017-09-03T05:00:05.091Z,1013.52
2017-09-03T05:01:05.069Z,1013.52
2017-09-03T05:02:05.047Z,1013.57
2017-09-03T05:03:05.029Z,1013.53
2017-09-03T05:04:05.003Z,1013.55
2017-09-03T05:05:04.985Z,1013.56
2017-09-03T05:06:04.960Z,1013.55
2017-09-03T05:07:04.937Z,1013.54
2017-09-03T05:08:04.913Z,1013.53
2017-09-03T05:09:04.893Z,1013.48
2017-09-03T05:10:04.870Z,1013.55
2017-09-03T05:11:04.847Z,1013.45
2017-09-03T05:12:04.826Z,1013.46
2017-09-03T05:13:04.807Z,1013.46
2017-09-03T05:14:04.783Z,1013.48
2017-09-03T05:15:04.761Z,1013.45
2017-09-03T05:16:04.739Z,1013.45
2017-09-03T05:17:04.720Z,1013.43
2017-09-03T05:18:04.693Z,1013.40
2017-09-03T05:19:04.674Z,1013.37
2017-09-03T05:20:04.648Z,1013.35
2017-09-03T05:21:04.631Z,1013.39
2017-09-03T05:22:04.609Z,1013.33
2017-09-03T05:23:04.589Z,1013.31
2017-09-03T05:24:04.565Z,1013.30
2017-09-03T05:25:04.541Z,1013.31
2017-09-03T05:26:04.517Z,1013.33
2017-09-03T05:27:04.497Z,1013.30
2017-09-03T05:28:04.471Z,1013.30
2017-09-03T05:29:04.453Z,1013.27
2017-09-03T05:30:04.430Z,1013.24
2017-09-03T05:31:04.404Z,1013.30
2017-09-03T05:32:04.386Z,1013.29
2017-09-03T05:33:04.366Z,1013.27
2017-09-03T05:34:04.343Z,1013.28
2017-09-03T05:35:04.320Z,1013.24
2017-09-03T05:36:04.296Z,1013.27
2017-09-03T05:37:04.272Z,1013.26
2017-09-03T05:38:04.254Z,1013.23
2017-09-03T05:39:04.228Z,1013.23
2017-09-03T05:40:04.205Z,1013.22
2017-09-03T05:41:04.187Z,1013.21
2017-09-03T05:42:04.165Z,1013.18
2017-09-03T05:43:04.140Z,1013.15
2017-09-03T05:44:04.117Z,1013.17
2017-09-03T05:45:04.095Z,1013.20
2017-09-03T05:46:04.076Z,1013.17
2017-09-03T05:47:04.050Z,1013.20
2017-09-03T05:48:04.029Z,1013.20
2017-09-03T05:49:04.007Z,1013.16
2017-09-03T05:50:03.990Z,1013.19
2017-09-03T05:51:03.969Z,1013.20
2017-09-03T05:52:03.940Z,1013.21
2017-09-03T05:53:03.921Z,1013.21
2017-09-03T05:54:03.895Z,1013.19
2017-09-03T05:55:03.874Z,1013.19
2017-09-03T05:56:03.851Z,1013.20
2017-09-03T05:57:03.829Z,1013.19
2017-09-03T05:58:03.807Z,1013.18
2017-09-03T05:59:03.787Z,1013.18
2017-09-03T06:00:03.763Z,1013.20
2017-09-03T06:01:03.741Z,1013.18
2017-09-03T06:02:03.720Z,1013.18
2017-09-03T06:03:03.698Z,1013.24
2017-09-03T06:04:03.674Z,1013.26
2017-09-03T06:05:03.652Z,1013.25
2017-09-03T06:06:03.634Z,1013.25
2017-09-03T06:07:03.619Z,1013.27
2017-09-03T06:08:03.586Z,1013.29
2017-09-03T06:09:03.568Z,1013.27
2017-09-03T06:10:03.542Z,1013.27
2017-09-03T06:11:03.521Z,1013.26
2017-09-03T06:12:03.501Z,1013.25
2017-09-03T06:13:03.476Z,1013.21
2017-09-03T06:14:03.455Z,1013.22
2017-09-03T06:15:03.435Z,1013.23
2017-09-03T06:16:03.413Z,1013.19
2017-09-03T06:17:03.390Z,1013.23
2017-09-03T06:18:03.366Z,1013.14
2017-09-03T06:19:03.342Z,1013.20
2017-09-03T06:20:03.320Z,1013.20
2017-09-03T06:21:03.300Z,1013.21
2017-09-03T06:22:03.288Z,1013.23
2017-09-03T06:23:03.254Z,1013.21
2017-09-03T06:24:03.234Z,1013.22
2017-09-03T06:25:03.211Z,1013.24
2017-09-03T06:26:03.190Z,1013.25
2017-09-03T06:27:03.169Z,1013.23
2017-09-03T06:28:03.154Z,1013.27
2017-09-03T06:29:03.124Z,1013.27
2017-09-03T06:30:03.100Z,1013.26
2017-09-03T06:31:03.075Z,1013.25
2017-09-03T06:32:03.055Z,1013.27
2017-09-03T06:33:03.031Z,1013.26
2017-09-03T06:34:03.011Z,1013.29
2017-09-03T06:35:02.989Z,1013.31
2017-09-03T06:36:02.974Z,1013.30
2017-09-03T06:37:02.950Z,1013.30
2017-09-03T06:38:02.926Z,1013.29
2017-09-03T06:39:02.903Z,1013.27
2017-09-03T06:40:02.876Z,1013.28
2017-09-03T06:41:02.855Z,1013.29
2017-09-03T06:42:02.834Z,1013.31
2017-09-03T06:43:02.812Z,1013.32
2017-09-03T06:44:02.792Z,1013.37
2017-09-03T06:45:02.771Z,1013.36
2017-09-03T06:46:02.748Z,1013.41
2017-09-03T06:47:02.725Z,1013.41
2017-09-03T06:48:02.701Z,1013.39
2017-09-03T06:49:02.678Z,1013.40
2017-09-03T06:50:02.661Z,1013.40
2017-09-03T06:51:02.632Z,1013.42
2017-09-03T06:52:02.616Z,1013.41
2017-09-03T06:53:02.589Z,1013.43
2017-09-03T06:54:02.570Z,1013.41
2017-09-03T06:55:02.548Z,1013.43
2017-09-03T06:56:02.523Z,1013.43
2017-09-03T06:57:02.501Z,1013.43
2017-09-03T06:58:02.488Z,1013.42
2017-09-03T06:59:02.457Z,1013.46
2017-09-03T07:00:02.441Z,1013.44
2017-09-03T07:01:02.416Z,1013.47
2017-09-03T07:02:02.391Z,1013.46
2017-09-03T07:03:02.372Z,1013.46
2017-09-03T07:04:02.349Z,1013.48
2017-09-03T07:05:02.326Z,1013.51
2017-09-03T07:06:02.313Z,1013.55
2017-09-03T07:07:02.284Z,1013.56
2017-09-03T07:08:02.260Z,1013.52
2017-09-03T07:09:02.239Z,1013.54
2017-09-03T07:10:02.225Z,1013.57
2017-09-03T07:11:02.192Z,1013.53
2017-09-03T07:12:02.171Z,1013.58
2017-09-03T07:13:02.174Z,1013.60
2017-09-03T07:14:02.129Z,1013.59
2017-09-03T07:15:02.107Z,1013.62
2017-09-03T07:16:02.083Z,1013.61
2017-09-03T07:17:02.059Z,1013.60
2017-09-03T07:18:02.038Z,1013.56
2017-09-03T07:19:02.017Z,1013.59
2017-09-03T07:20:01.994Z,1013.57
2017-09-03T07:21:01.973Z,1013.54
2017-09-03T07:22:01.952Z,1013.55
2017-09-03T07:23:01.925Z,1013.53
2017-09-03T07:24:01.907Z,1013.48
2017-09-03T07:25:01.888Z,1013.47
2017-09-03T07:26:01.860Z,1013.45
2017-09-03T07:27:01.852Z,1013.40
2017-09-03T07:28:01.820Z,1013.40
2017-09-03T07:29:01.798Z,1013.44
2017-09-03T07:30:01.776Z,1013.40
2017-09-03T07:31:01.750Z,1013.45
2017-09-03T07:32:01.731Z,1013.40
2017-09-03T07:33:01.711Z,1013.41
2017-09-03T07:34:01.684Z,1013.42
2017-09-03T07:35:01.666Z,1013.42
2017-09-03T07:36:01.644Z,1013.48
2017-09-03T07:37:01.654Z,1013.47
2017-09-03T07:38:01.597Z,1013.46
2017-09-03T07:39:01.573Z,1013.47
2017-09-03T07:40:01.551Z,1013.49
2017-09-03T07:41:01.533Z,1013.51
2017-09-03T07:42:01.511Z,1013.54
2017-09-03T07:43:01.491Z,1013.56
2017-09-03T07:44:01.525Z,1013.55
2017-09-03T07:45:01.442Z,1013.59
2017-09-03T07:46:01.424Z,1013.57
2017-09-03T07:47:01.398Z,1013.55
2017-09-03T07:48:01.375Z,1013.57
2017-09-03T07:49:01.353Z,1013.56
2017-09-03T07:50:01.332Z,1013.53
2017-09-03T07:51:01.310Z,1013.54
2017-09-03T07:52:01.290Z,1013.54
2017-09-03T07:53:01.271Z,1013.55
2017-09-03T07:54:01.247Z,1013.57
2017-09-03T07:55:01.224Z,1013.59
2017-09-03T07:56:01.199Z,1013.58
2017-09-03T07:57:01.181Z,1013.60
2017-09-03T07:58:01.162Z,1013.61
2017-09-03T07:59:01.137Z,1013.60
2017-09-03T08:00:01.114Z,1013.61
2017-09-03T08:01:01.093Z,1013.65
2017-09-03T08:02:01.071Z,1013.61
2017-09-03T08:03:01.045Z,1013.60
2017-09-03T08:04:01.028Z,1013.59
2017-09-03T08:05:01.007Z,1013.61
2017-09-03T08:06:01.000Z,1013.59
2017-09-03T08:07:00.958Z,1013.59
2017-09-03T08:08:00.941Z,1013.60
2017-09-03T08:09:00.917Z,1013.58
2017-09-03T08:10:00.895Z,1013.57
2017-09-03T08:11:00.870Z,1013.57
2017-09-03T08:12:00.851Z,1013.52
2017-09-03T08:13:00.831Z,1013.53
2017-09-03T08:14:00.810Z,1013.51
2017-09-03T08:15:00.786Z,1013.49
2017-09-03T08:16:00.763Z,1013.47
2017-09-03T08:17:00.921Z,1013.50
2017-09-03T08:18:00.721Z,1013.45
2017-09-03T08:19:00.698Z,1013.49
2017-09-03T08:20:00.674Z,1013.48
2017-09-03T08:21:00.657Z,1013.49
2017-09-03T08:22:00.631Z,1013.49
2017-09-03T08:23:00.607Z,1013.50
2017-09-03T08:24:00.590Z,1013.52
2017-09-03T08:25:00.564Z,1013.48
2017-09-03T08:26:00.546Z,1013.47
2017-09-03T08:27:00.521Z,1013.44
2017-09-03T08:28:00.502Z,1013.40
2017-09-03T08:29:00.481Z,1013.39
2017-09-03T08:30:00.456Z,1013.35
2017-09-03T08:31:00.435Z,1013.38
2017-09-03T08:32:00.414Z,1013.35
2017-09-03T08:33:00.391Z,1013.34
2017-09-03T08:34:00.370Z,1013.35
2017-09-03T08:35:00.348Z,1013.29
2017-09-03T08:36:00.328Z,1013.32
2017-09-03T08:37:00.307Z,1013.34
2017-09-03T08:38:00.285Z,1013.27
2017-09-03T08:39:00.262Z,1013.28
2017-09-03T08:40:00.236Z,1013.29
2017-09-03T08:41:00.217Z,1013.27
2017-09-03T08:42:00.197Z,1013.30
2017-09-03T08:43:00.172Z,1013.26
2017-09-03T08:44:00.152Z,1013.30
2017-09-03T08:45:00.131Z,1013.29
2017-09-03T08:46:00.110Z,1013.26
2017-09-03T08:47:00.085Z,1013.30
2017-09-03T08:48:00.063Z,1013.27
2017-09-03T08:49:00.040Z,1013.27
2017-09-03T08:50:00.020Z,1013.29
2017-09-03T08:51:00.002Z,1013.30
2017-09-03T08:51:59.976Z,1013.29
2017-09-03T08:52:59.953Z,1013.29
2017-09-03T08:53:59.934Z,1013.30
2017-09-03T08:54:59.911Z,1013.30
2017-09-03T08:55:59.889Z,1013.30
2017-09-03T08:56:59.866Z,1013.32
2017-09-03T08:57:59.844Z,1013.33
2017-09-03T08:58:59.820Z,1013.31
2017-09-03T08:59:59.801Z,1013.29
2017-09-03T09:00:59.777Z,1013.28
2017-09-03T09:01:59.758Z,1013.26
2017-09-03T09:02:59.737Z,1013.26
2017-09-03T09:03:59.716Z,1013.25
2017-09-03T09:04:59.694Z,1013.29
2017-09-03T09:05:59.669Z,1013.25
2017-09-03T09:06:59.649Z,1013.24
2017-09-03T09:07:59.626Z,1013.23
2017-09-03T09:08:59.608Z,1013.23
2017-09-03T09:09:59.582Z,1013.25
2017-09-03T09:10:59.562Z,1013.19
2017-09-03T09:11:59.538Z,1013.23
2017-09-03T09:12:59.518Z,1013.20
2017-09-03T09:13:59.499Z,1013.19
2017-09-03T09:14:59.473Z,1013.22
2017-09-03T09:15:59.454Z,1013.18
2017-09-03T09:16:59.430Z,1013.23
2017-09-03T09:17:59.413Z,1013.22
2017-09-03T09:18:59.388Z,1013.22
2017-09-03T09:19:59.367Z,1013.18
2017-09-03T09:20:59.346Z,1013.17
2017-09-03T09:21:59.324Z,1013.22
2017-09-03T09:22:59.302Z,1013.18
2017-09-03T09:23:59.280Z,1013.17
2017-09-03T09:24:59.258Z,1013.19
2017-09-03T09:25:59.239Z,1013.18
2017-09-03T09:26:59.214Z,1013.18
2017-09-03T09:27:59.192Z,1013.26
2017-09-03T09:28:59.168Z,1013.25
2017-09-03T09:29:59.147Z,1013.27
2017-09-03T09:30:59.122Z,1013.27
2017-09-03T09:31:59.105Z,1013.27
2017-09-03T09:32:59.079Z,1013.28
2017-09-03T09:33:59.060Z,1013.26
2017-09-03T09:34:59.035Z,1013.24
2017-09-03T09:35:59.014Z,1013.24
2017-09-03T09:36:58.996Z,1013.25
2017-09-03T09:37:58.973Z,1013.19
2017-09-03T09:38:58.951Z,1013.21
2017-09-03T09:39:58.929Z,1013.16
2017-09-03T09:40:58.904Z,1013.17
2017-09-03T09:41:58.885Z,1013.17
2017-09-03T09:42:58.859Z,1013.14
2017-09-03T09:43:58.841Z,1013.12
2017-09-03T09:44:58.814Z,1013.14
2017-09-03T09:45:58.797Z,1013.11
2017-09-03T09:46:58.772Z,1013.07
2017-09-03T09:47:58.752Z,1013.07
2017-09-03T09:48:58.728Z,1013.07
2017-09-03T09:49:58.707Z,1013.16
2017-09-03T09:50:58.690Z,1013.11
2017-09-03T09:51:58.663Z,1013.10
2017-09-03T09:52:58.669Z,1013.10
2017-09-03T09:53:58.621Z,1013.11
2017-09-03T09:54:58.598Z,1013.08
2017-09-03T09:55:58.577Z,1013.01
2017-09-03T09:56:58.571Z,1013.06
2017-09-03T09:57:58.532Z,1013.03
2017-09-03T09:58:58.505Z,1013.04
2017-09-03T09:59:58.483Z,1013.07
2017-09-03T10:00:58.467Z,1013.04
2017-09-03T10:01:58.444Z,1013.03
2017-09-03T10:02:58.420Z,1013.03
2017-09-03T10:03:58.397Z,1013.02
2017-09-03T10:04:58.376Z,1013.03
2017-09-03T10:05:58.356Z,1012.99
2017-09-03T10:06:58.331Z,1012.99
2017-09-03T10:07:58.309Z,1013.00
2017-09-03T10:08:58.284Z,1012.97
2017-09-03T10:09:58.265Z,1012.95
2017-09-03T10:10:58.242Z,1012.97
2017-09-03T10:11:58.221Z,1012.97
2017-09-03T10:12:58.197Z,1012.99
2017-09-03T10:13:58.177Z,1012.99
2017-09-03T10:14:58.155Z,1012.96
2017-09-03T10:15:58.129Z,1012.95
2017-09-03T10:16:58.106Z,1012.96
2017-09-03T10:17:58.089Z,1012.95
2017-09-03T10:18:58.062Z,1012.93
2017-09-03T10:19:58.041Z,1012.90
2017-09-03T10:20:58.018Z,1012.92
2017-09-03T10:21:58.001Z,1012.92
2017-09-03T10:22:57.978Z,1012.87
2017-09-03T10:23:57.952Z,1012.82
2017-09-03T10:24:57.935Z,1012.86
2017-09-03T10:25:57.911Z,1012.86
2017-09-03T10:26:57.885Z,1012.84
2017-09-03T10:27:57.866Z,1012.83
2017-09-03T10:28:57.848Z,1012.79
2017-09-03T10:29:57.824Z,1012.78
2017-09-03T10:30:57.797Z,1012.78
2017-09-03T10:31:57.777Z,1012.74
2017-09-03T10:32:57.757Z,1012.78
2017-09-03T10:33:57.737Z,1012.77
2017-09-03T10:34:57.713Z,1012.77
2017-09-03T10:35:57.689Z,1012.77
2017-09-03T10:36:57.669Z,1012.77
2017-09-03T10:37:57.646Z,1012.74
2017-09-03T10:38:57.623Z,1012.72
2017-09-03T10:39:57.598Z,1012.70
2017-09-03T10:40:57.583Z,1012.68
2017-09-03T10:41:57.555Z,1012.72
2017-09-03T10:42:57.535Z,1012.69
2017-09-03T10:43:57.509Z,1012.66
2017-09-03T10:44:57.497Z,1012.63
2017-09-03T10:45:57.476Z,1012.62
2017-09-03T10:46:57.445Z,1012.61
2017-09-03T10:47:57.425Z,1012.62
2017-09-03T10:48:57.400Z,1012.60
2017-09-03T10:49:57.378Z,1012.60
2017-09-03T10:50:57.354Z,1012.59
2017-09-03T10:51:57.333Z,1012.57
2017-09-03T10:52:57.316Z,1012.58
2017-09-03T10:53:57.293Z,1012.57
2017-09-03T10:54:57.266Z,1012.56
2017-09-03T10:55:57.252Z,1012.61
2017-09-03T10:56:57.223Z,1012.61
2017-09-03T10:57:57.200Z,1012.56
2017-09-03T10:58:57.181Z,1012.58
2017-09-03T10:59:57.156Z,1012.57
2017-09-03T11:00:57.137Z,1012.52
2017-09-03T11:01:57.113Z,1012.54
2017-09-03T11:02:57.090Z,1012.57
2017-09-03T11:03:57.070Z,1012.53
2017-09-03T11:04:57.046Z,1012.50
2017-09-03T11:05:57.026Z,1012.50
2017-09-03T11:06:57.009Z,1012.52
2017-09-03T11:07:56.984Z,1012.49
2017-09-03T11:08:56.959Z,1012.53
2017-09-03T11:09:56.935Z,1012.53
2017-09-03T11:10:56.916Z,1012.57
2017-09-03T11:11:56.892Z,1012.59
2017-09-03T11:12:56.872Z,1012.58
2017-09-03T11:13:56.848Z,1012.55
2017-09-03T11:14:56.824Z,1012.55
2017-09-03T11:15:56.807Z,1012.53
2017-09-03T11:16:56.783Z,1012.52
2017-09-03T11:17:56.762Z,1012.51
2017-09-03T11:18:56.738Z,1012.45
2017-09-03T11:19:56.719Z,1012.50
2017-09-03T11:20:56.698Z,1012.44
2017-09-03T11:21:56.674Z,1012.42
2017-09-03T11:22:56.648Z,1012.41
2017-09-03T11:23:56.628Z,1012.40
2017-09-03T11:24:56.608Z,1012.38
2017-09-03T11:25:56.587Z,1012.38
2017-09-03T11:26:56.564Z,1012.37
2017-09-03T11:27:56.545Z,1012.39
2017-09-03T11:28:56.519Z,1012.39
2017-09-03T11:29:56.493Z,1012.39
2017-09-03T11:30:56.476Z,1012.35
2017-09-03T11:31:56.452Z,1012.34
2017-09-03T11:32:56.427Z,1012.32
2017-09-03T11:33:56.406Z,1012.30
2017-09-03T11:34:56.386Z,1012.30
2017-09-03T11:35:56.367Z,1012.31
2017-09-03T11:36:56.345Z,1012.28
2017-09-03T11:37:56.320Z,1012.25
2017-09-03T11:38:56.299Z,1012.24
2017-09-03T11:39:56.277Z,1012.25
2017-09-03T11:40:56.252Z,1012.29
2017-09-03T11:41:56.233Z,1012.22
2017-09-03T11:42:56.211Z,1012.26
2017-09-03T11:43:56.188Z,1012.26
2017-09-03T11:44:56.163Z,1012.21
2017-09-03T11:45:56.142Z,1012.22
2017-09-03T11:46:56.119Z,1012.22
2017-09-03T11:47:56.100Z,1012.21
2017-09-03T11:48:56.075Z,1012.23
2017-09-03T11:49:56.055Z,1012.22
2017-09-03T11:50:56.034Z,1012.22
2017-09-03T11:51:56.012Z,1012.21
2017-09-03T11:52:55.988Z,1012.22
2017-09-03T11:53:55.967Z,1012.15
2017-09-03T11:54:55.942Z,1012.17
2017-09-03T11:55:55.921Z,1012.19
2017-09-03T11:56:55.904Z,1012.19
2017-09-03T11:57:55.876Z,1012.14
2017-09-03T11:58:55.857Z,1012.14
2017-09-03T11:59:55.832Z,1012.14
2017-09-03T12:00:55.817Z,1012.13
2017-09-03T12:01:55.788Z,1012.12
2017-09-03T12:02:55.768Z,1012.12
2017-09-03T12:03:55.759Z,1012.09
2017-09-03T12:04:55.725Z,1012.10